createdAt,value
2019-03-15T00:00:40.920Z,71.60
2019-03-15T00:03:12.118Z,71.70
2019-03-15T00:05:42.530Z,71.80
2019-03-15T00:08:10.984Z,71.80
2019-03-15T00:10:40.979Z,71.70
2019-03-15T00:13:09.568Z,72.10
2019-03-15T00:15:39.599Z,72.10
2019-03-15T00:18:10.027Z,72.10
2019-03-15T00:20:41.101Z,72.40
2019-03-15T00:23:10.567Z,72.60
2019-03-15T00:26:00.809Z,72.60
2019-03-15T00:28:30.798Z,72.80
2019-03-15T00:30:59.332Z,73.40
2019-03-15T00:33:27.817Z,72.60
2019-03-15T00:35:57.549Z,72.60
2019-03-15T00:38:28.624Z,72.70
2019-03-15T00:40:59.723Z,72.70
2019-03-15T00:43:29.063Z,72.80
2019-03-15T00:46:03.148Z,72.60
2019-03-15T00:48:31.640Z,72.70
2019-03-15T00:51:00.097Z,72.70
2019-03-15T00:53:28.646Z,72.70
2019-03-15T00:55:57.215Z,72.50
2019-03-15T00:58:25.744Z,72.60
2019-03-15T01:00:54.222Z,72.70
2019-03-15T01:03:22.761Z,72.50
2019-03-15T01:05:52.855Z,73.20
2019-03-15T01:08:21.378Z,72.50
2019-03-15T01:10:49.891Z,72.40
2019-03-15T01:13:18.420Z,72.40
2019-03-15T01:15:49.017Z,72.50
2019-03-15T01:18:20.721Z,72.50
2019-03-15T01:20:50.891Z,72.60
2019-03-15T01:23:23.698Z,72.50
2019-03-15T01:25:52.202Z,72.60
2019-03-15T01:28:20.678Z,72.70
2019-03-15T01:30:49.142Z,72.60
2019-03-15T01:33:17.611Z,72.60
2019-03-15T01:35:46.091Z,72.60
2019-03-15T01:38:14.622Z,72.60
2019-03-15T01:40:43.255Z,72.60
2019-03-15T01:43:11.759Z,72.60
2019-03-15T01:45:40.206Z,72.60
2019-03-15T01:48:08.687Z,72.60
2019-03-15T01:50:38.674Z,72.60
2019-03-15T01:53:07.141Z,72.60
2019-03-15T01:55:38.741Z,72.60
2019-03-15T01:58:07.191Z,72.60
2019-03-15T02:00:35.842Z,72.70
2019-03-15T02:03:06.111Z,72.70
2019-03-15T02:05:34.650Z,72.80
2019-03-15T02:08:05.908Z,72.70
2019-03-15T02:10:38.095Z,72.80
2019-03-15T02:13:06.535Z,72.80
2019-03-15T02:15:38.078Z,72.80
2019-03-15T02:18:08.317Z,72.80
2019-03-15T02:20:36.840Z,72.80
2019-03-15T02:23:05.335Z,72.90
2019-03-15T02:25:33.941Z,73.70
2019-03-15T02:28:02.438Z,72.90
2019-03-15T02:30:30.948Z,72.90
2019-03-15T02:32:59.451Z,72.90
2019-03-15T02:35:28.098Z,73.00
2019-03-15T02:37:58.339Z,73.00
2019-03-15T02:40:28.497Z,73.10
2019-03-15T02:43:20.933Z,73.10
2019-03-15T02:46:01.467Z,73.40
2019-03-15T02:48:32.912Z,73.20
2019-03-15T02:51:01.044Z,73.20
2019-03-15T02:53:32.224Z,73.40
2019-03-15T02:56:00.878Z,73.60
2019-03-15T02:58:29.396Z,73.60
2019-03-15T03:00:58.264Z,73.60
2019-03-15T03:03:28.300Z,73.60
2019-03-15T03:05:57.533Z,73.70
2019-03-15T03:08:28.344Z,73.70
2019-03-15T03:10:58.689Z,73.80
2019-03-15T03:13:29.443Z,73.80
2019-03-15T03:15:58.161Z,73.80
2019-03-15T03:18:30.917Z,74.60
2019-03-15T03:20:59.400Z,73.90
2019-03-15T03:23:30.785Z,74.00
2019-03-15T03:26:05.319Z,74.10
2019-03-15T03:28:35.352Z,74.30
2019-03-15T03:31:05.497Z,75.20
2019-03-15T03:33:34.020Z,74.60
2019-03-15T03:36:02.651Z,74.80
2019-03-15T03:38:31.136Z,74.90
2019-03-15T03:41:01.349Z,75.20
2019-03-15T03:43:29.959Z,75.20
2019-03-15T03:45:58.419Z,75.40
2019-03-15T03:48:26.894Z,75.50
2019-03-15T03:50:55.519Z,75.50
2019-03-15T03:53:24.255Z,75.50
2019-03-15T03:55:52.849Z,75.70
2019-03-15T03:58:21.420Z,75.60
2019-03-15T04:00:49.940Z,75.80
2019-03-15T04:03:18.726Z,75.90
2019-03-15T04:05:47.642Z,76.00
2019-03-15T04:08:16.162Z,76.10
2019-03-15T04:10:44.671Z,76.20
2019-03-15T04:13:13.172Z,76.30
2019-03-15T04:15:42.203Z,76.40
2019-03-15T04:18:10.663Z,76.40
2019-03-15T04:20:40.678Z,76.50
2019-03-15T04:23:11.426Z,76.50
2019-03-15T04:25:43.014Z,76.60
2019-03-15T04:28:11.457Z,76.60
2019-03-15T04:30:39.944Z,76.60
2019-03-15T04:33:08.398Z,76.70
2019-03-15T04:35:36.861Z,76.70
2019-03-15T04:38:05.432Z,76.80
2019-03-15T04:40:33.896Z,76.80
2019-03-15T04:43:02.423Z,76.80
2019-03-15T04:45:31.941Z,76.90
2019-03-15T04:48:03.217Z,77.00
2019-03-15T04:50:31.710Z,76.90
2019-03-15T04:53:00.201Z,76.90
2019-03-15T04:55:28.807Z,76.90
2019-03-15T04:57:57.332Z,76.90
2019-03-15T05:00:25.807Z,76.90
2019-03-15T05:02:54.265Z,76.90
2019-03-15T05:05:22.929Z,77.60
2019-03-15T05:07:54.907Z,76.90
2019-03-15T05:10:23.391Z,77.00
2019-03-15T05:12:56.056Z,77.10
2019-03-15T05:15:24.753Z,77.00
2019-03-15T05:17:53.275Z,77.00
2019-03-15T05:20:21.722Z,76.90
2019-03-15T05:22:50.256Z,77.00
2019-03-15T05:25:18.948Z,76.90
2019-03-15T05:27:47.521Z,77.10
2019-03-15T05:30:15.987Z,77.10
2019-03-15T05:32:44.456Z,77.30
2019-03-15T05:35:13.430Z,77.40
2019-03-15T05:37:46.164Z,77.60
2019-03-15T05:40:15.624Z,77.90
2019-03-15T05:42:44.736Z,77.90
2019-03-15T05:45:14.420Z,78.10
2019-03-15T05:47:46.040Z,78.20
2019-03-15T05:50:17.931Z,78.50
2019-03-15T05:52:46.728Z,78.70
2019-03-15T05:55:21.369Z,78.80
2019-03-15T05:57:49.952Z,79.10
2019-03-15T06:00:20.402Z,79.40
2019-03-15T06:02:49.472Z,79.60
2019-03-15T06:05:18.894Z,79.70
2019-03-15T06:07:50.445Z,80.10
2019-03-15T06:10:18.904Z,80.10
2019-03-15T06:12:48.045Z,80.20
2019-03-15T06:15:17.865Z,80.40
2019-03-15T06:17:47.402Z,80.50
2019-03-15T06:20:17.269Z,80.70
2019-03-15T06:22:46.949Z,80.90
2019-03-15T06:25:15.625Z,81.00
2019-03-15T06:27:45.681Z,81.20
2019-03-15T06:30:19.338Z,81.40
2019-03-15T06:32:49.033Z,81.50
2019-03-15T06:35:19.137Z,81.60
2019-03-15T06:37:49.687Z,81.80
2019-03-15T06:40:18.486Z,81.80
2019-03-15T06:42:47.095Z,82.10
2019-03-15T06:45:15.643Z,82.30
2019-03-15T06:47:48.135Z,82.40
2019-03-15T06:50:17.787Z,82.50
2019-03-15T06:52:46.321Z,82.60
2019-03-15T06:55:17.669Z,82.70
2019-03-15T06:57:46.227Z,82.80
2019-03-15T07:00:17.695Z,83.00
2019-03-15T07:02:46.389Z,83.20
2019-03-15T07:05:17.468Z,83.50
2019-03-15T07:07:49.892Z,83.40
2019-03-15T07:10:18.470Z,83.30
2019-03-15T07:12:47.032Z,83.30
2019-03-15T07:15:15.880Z,83.30
2019-03-15T07:17:47.795Z,83.40
2019-03-15T07:20:17.241Z,83.50
2019-03-15T07:22:45.903Z,83.60
2019-03-15T07:25:14.545Z,83.70
2019-03-15T07:27:46.543Z,83.80
2019-03-15T07:30:17.568Z,84.70
2019-03-15T07:32:47.405Z,84.10
2019-03-15T07:35:16.228Z,84.20
2019-03-15T07:37:45.737Z,84.30
2019-03-15T07:40:18.683Z,84.40
2019-03-15T07:42:48.751Z,84.70
2019-03-15T07:45:17.674Z,84.80
2019-03-15T07:47:55.573Z,84.80
2019-03-15T07:50:25.796Z,84.80
2019-03-15T07:52:54.932Z,84.90
2019-03-15T07:55:25.241Z,85.00
2019-03-15T07:57:55.818Z,85.00
2019-03-15T08:00:27.230Z,85.10
2019-03-15T08:03:00.043Z,85.20
2019-03-15T08:05:29.408Z,85.40
2019-03-15T08:07:58.028Z,85.40
2019-03-15T08:10:26.581Z,85.50
2019-03-15T08:12:55.112Z,85.70
2019-03-15T08:15:24.546Z,85.90
2019-03-15T08:17:54.596Z,86.10
2019-03-15T08:20:23.353Z,86.20
2019-03-15T08:22:51.881Z,86.40
2019-03-15T08:25:21.973Z,86.40
2019-03-15T08:27:50.453Z,86.40
2019-03-15T08:30:19.483Z,86.40
2019-03-15T08:32:48.184Z,86.50
2019-03-15T08:35:16.936Z,86.60
2019-03-15T08:37:45.531Z,87.10
2019-03-15T08:40:14.764Z,87.20
2019-03-15T08:42:43.567Z,87.10
2019-03-15T08:45:13.999Z,87.40
2019-03-15T08:47:42.753Z,88.10
2019-03-15T08:50:15.289Z,88.40
2019-03-15T08:52:44.016Z,88.70
2019-03-15T08:55:15.792Z,89.30
2019-03-15T08:57:44.231Z,89.10
2019-03-15T09:00:18.459Z,89.10
2019-03-15T09:02:46.943Z,89.10
2019-03-15T09:05:17.386Z,88.80
2019-03-15T09:07:46.998Z,88.20
2019-03-15T09:10:24.127Z,87.60
2019-03-15T09:12:52.880Z,87.10
2019-03-15T09:15:21.493Z,86.60
2019-03-15T09:17:49.979Z,86.30
2019-03-15T09:20:19.684Z,85.60
2019-03-15T09:22:48.156Z,85.00
2019-03-15T09:25:20.228Z,84.50
2019-03-15T09:27:50.167Z,84.70
2019-03-15T09:30:23.657Z,84.80
2019-03-15T09:32:49.198Z,84.80
2019-03-15T09:35:17.744Z,84.30
2019-03-15T09:37:47.657Z,84.30
2019-03-15T09:40:16.633Z,84.10
2019-03-15T09:42:47.646Z,83.30
2019-03-15T09:45:21.207Z,83.70
2019-03-15T09:47:51.328Z,82.90
2019-03-15T09:50:33.290Z,81.80
2019-03-15T09:52:56.253Z,81.40
2019-03-15T09:55:33.096Z,81.30
2019-03-15T09:57:59.918Z,81.00
2019-03-15T10:00:31.828Z,81.10
2019-03-15T10:03:01.443Z,79.90
2019-03-15T10:05:31.358Z,79.60
2019-03-15T10:07:59.846Z,79.10
2019-03-15T10:10:29.866Z,78.70
2019-03-15T10:13:05.840Z,78.90
2019-03-15T10:15:34.755Z,78.30
2019-03-15T10:18:03.343Z,77.50
2019-03-15T10:20:33.441Z,77.10
2019-03-15T10:23:06.585Z,76.70
2019-03-15T10:25:46.149Z,76.40
2019-03-15T10:28:08.367Z,75.90
2019-03-15T10:30:37.906Z,75.80
2019-03-15T10:33:06.593Z,75.30
2019-03-15T10:35:35.793Z,75.50
2019-03-15T10:38:05.309Z,75.00
2019-03-15T10:40:33.971Z,75.70
2019-03-15T10:43:02.496Z,77.60
2019-03-15T10:45:31.158Z,79.30
2019-03-15T10:48:00.634Z,80.00
2019-03-15T10:50:30.693Z,80.90
2019-03-15T10:53:00.696Z,81.90
2019-03-15T10:55:37.753Z,82.30
2019-03-15T10:58:06.377Z,82.20
2019-03-15T11:00:37.909Z,82.10
2019-03-15T11:03:06.384Z,81.80
2019-03-15T11:05:34.872Z,81.50
2019-03-15T11:08:03.459Z,81.10
2019-03-15T11:10:32.142Z,80.60
2019-03-15T11:13:00.660Z,79.80
2019-03-15T11:15:32.120Z,79.40
2019-03-15T11:18:00.590Z,78.30
2019-03-15T11:20:29.051Z,77.50
2019-03-15T11:23:01.081Z,77.60
2019-03-15T11:25:31.695Z,77.90
2019-03-15T11:28:00.318Z,78.80
2019-03-15T11:30:30.117Z,79.60
2019-03-15T11:33:00.186Z,79.70
2019-03-15T11:35:28.674Z,79.70
2019-03-15T11:37:57.153Z,79.40
2019-03-15T11:40:25.620Z,79.00
2019-03-15T11:42:54.397Z,78.40
2019-03-15T11:45:22.912Z,78.10
2019-03-15T11:48:03.470Z,77.50
2019-03-15T11:50:23.117Z,76.70
2019-03-15T11:52:51.620Z,76.60
2019-03-15T11:55:39.432Z,75.70
2019-03-15T11:58:07.919Z,74.90
2019-03-15T12:00:37.041Z,73.80
2019-03-15T12:03:06.802Z,72.50
2019-03-15T12:05:36.184Z,73.20
2019-03-15T12:08:04.985Z,73.00
2019-03-15T12:10:33.567Z,72.40
2019-03-15T12:13:03.605Z,72.50
2019-03-15T12:15:32.193Z,72.00
2019-03-15T12:18:00.736Z,72.20
2019-03-15T12:20:29.257Z,71.70
2019-03-15T12:22:57.898Z,71.90
2019-03-15T12:25:31.630Z,70.90
2019-03-15T12:28:00.260Z,71.30
2019-03-15T12:30:30.307Z,71.70
2019-03-15T12:32:58.768Z,71.90
2019-03-15T12:35:27.225Z,72.80
2019-03-15T12:37:55.711Z,73.50
2019-03-15T12:40:25.284Z,73.80
2019-03-15T12:42:53.723Z,73.90
2019-03-15T12:45:22.201Z,74.30
2019-03-15T12:47:50.670Z,75.80
2019-03-15T12:50:19.374Z,76.70
2019-03-15T12:52:48.712Z,77.40
2019-03-15T12:55:18.008Z,77.90
2019-03-15T12:57:49.304Z,78.70
2019-03-15T13:00:20.582Z,80.10
2019-03-15T13:02:49.206Z,81.20
2019-03-15T13:05:17.737Z,81.90
2019-03-15T13:07:46.328Z,83.30
2019-03-15T13:10:19.568Z,83.70
2019-03-15T13:12:48.027Z,84.80
2019-03-15T13:15:17.148Z,84.50
2019-03-15T13:17:46.264Z,85.10
2019-03-15T13:20:16.806Z,84.70
2019-03-15T13:22:45.437Z,84.30
2019-03-15T13:25:14.214Z,84.50
2019-03-15T13:27:43.238Z,84.40
2019-03-15T13:30:16.899Z,84.20
2019-03-15T13:32:45.421Z,84.00
2019-03-15T13:35:14.148Z,83.90
2019-03-15T13:37:43.366Z,83.50
2019-03-15T13:40:19.878Z,83.70
2019-03-15T13:42:49.886Z,84.50
2019-03-15T13:45:18.402Z,85.30
2019-03-15T13:47:46.932Z,86.00
2019-03-15T13:50:20.938Z,86.40
2019-03-15T13:52:49.510Z,86.60
2019-03-15T13:55:18.035Z,86.30
2019-03-15T13:57:46.715Z,85.60
2019-03-15T14:00:16.718Z,85.00
2019-03-15T14:02:45.261Z,83.80
2019-03-15T14:05:16.057Z,83.50
2019-03-15T14:07:44.621Z,83.50
2019-03-15T14:10:20.329Z,83.30
2019-03-15T14:12:48.892Z,83.10
2019-03-15T14:15:22.013Z,82.80
2019-03-15T14:17:50.471Z,82.60
2019-03-15T14:20:21.785Z,82.30
2019-03-15T14:22:59.758Z,81.60
2019-03-15T14:25:34.015Z,81.70
2019-03-15T14:28:05.568Z,81.40
2019-03-15T14:30:35.066Z,81.30
2019-03-15T14:33:05.098Z,81.70
2019-03-15T14:35:36.708Z,81.70
2019-03-15T14:38:09.292Z,81.70
2019-03-15T14:40:40.795Z,81.30
2019-03-15T14:43:09.788Z,80.60
2019-03-15T14:45:43.096Z,80.70
2019-03-15T14:48:15.443Z,80.60
2019-03-15T14:50:44.519Z,80.70
2019-03-15T14:53:14.121Z,80.90
2019-03-15T14:55:44.216Z,80.80
2019-03-15T14:58:12.935Z,80.80
2019-03-15T15:00:45.677Z,80.40
2019-03-15T15:03:16.179Z,79.90
2019-03-15T15:05:47.454Z,79.70
2019-03-15T15:08:16.679Z,77.80
2019-03-15T15:10:45.146Z,76.90
2019-03-15T15:13:13.696Z,76.80
2019-03-15T15:15:42.327Z,75.40
2019-03-15T15:18:11.168Z,75.00
2019-03-15T15:20:41.321Z,75.10
2019-03-15T15:23:11.271Z,75.20
2019-03-15T15:25:42.533Z,75.50
2019-03-15T15:28:11.048Z,73.90
2019-03-15T15:30:40.095Z,74.70
2019-03-15T15:33:10.678Z,72.60
2019-03-15T15:35:41.564Z,72.70
2019-03-15T15:38:09.431Z,73.00
2019-03-15T15:40:40.766Z,73.00
2019-03-15T15:43:11.124Z,72.70
2019-03-15T15:45:39.762Z,72.80
2019-03-15T15:48:08.231Z,72.30
2019-03-15T15:50:36.696Z,72.40
2019-03-15T15:53:05.308Z,72.60
2019-03-15T15:55:33.906Z,72.50
2019-03-15T15:58:02.373Z,71.90
2019-03-15T16:00:32.232Z,71.60
2019-03-15T16:03:00.760Z,71.50
2019-03-15T16:05:29.353Z,71.40
2019-03-15T16:07:57.836Z,71.30
2019-03-15T16:10:27.877Z,71.40
2019-03-15T16:12:58.775Z,71.60
2019-03-15T16:15:27.104Z,70.50
2019-03-15T16:17:55.602Z,70.60
2019-03-15T16:20:24.123Z,71.10
2019-03-15T16:22:54.976Z,71.20
2019-03-15T16:25:28.876Z,70.60
2019-03-15T16:27:57.405Z,69.70
2019-03-15T16:30:25.958Z,69.30
2019-03-15T16:32:56.450Z,68.60
2019-03-15T16:35:25.140Z,69.20
2019-03-15T16:37:53.624Z,68.20
2019-03-15T16:40:23.629Z,67.50
2019-03-15T16:42:56.725Z,67.80
2019-03-15T16:45:28.540Z,68.00
2019-03-15T16:48:03.056Z,67.00
2019-03-15T16:50:38.729Z,67.60
2019-03-15T16:53:08.381Z,67.90
2019-03-15T16:55:46.075Z,66.40
2019-03-15T16:58:17.550Z,67.10
2019-03-15T17:00:46.156Z,67.30
2019-03-15T17:03:14.674Z,67.60
2019-03-15T17:05:43.317Z,66.10
2019-03-15T17:08:11.801Z,66.00
2019-03-15T17:10:40.262Z,64.80
2019-03-15T17:13:10.415Z,64.90
2019-03-15T17:15:39.124Z,65.10
2019-03-15T17:18:10.801Z,64.90
2019-03-15T17:20:42.240Z,64.70
2019-03-15T17:23:14.987Z,65.10
2019-03-15T17:25:46.609Z,65.20
2019-03-15T17:28:16.728Z,65.30
2019-03-15T17:30:45.212Z,65.60
2019-03-15T17:33:14.085Z,65.20
2019-03-15T17:35:42.603Z,64.60
2019-03-15T17:38:11.077Z,65.20
2019-03-15T17:40:42.541Z,65.00
2019-03-15T17:43:11.131Z,64.80
2019-03-15T17:45:41.123Z,65.20
2019-03-15T17:48:11.365Z,65.00
2019-03-15T17:50:41.000Z,64.80
2019-03-15T17:53:09.532Z,64.90
2019-03-15T17:55:38.166Z,65.70
2019-03-15T17:58:06.743Z,64.70
2019-03-15T18:00:49.101Z,64.60
2019-03-15T18:03:21.373Z,64.60
2019-03-15T18:05:48.822Z,64.70
2019-03-15T18:08:17.402Z,64.60
2019-03-15T18:10:46.785Z,64.80
2019-03-15T18:13:15.309Z,64.60
2019-03-15T18:15:45.506Z,64.90
2019-03-15T18:18:13.987Z,64.70
2019-03-15T18:20:42.607Z,64.70
2019-03-15T18:23:11.067Z,64.90
2019-03-15T18:25:41.317Z,64.90
2019-03-15T18:28:11.167Z,64.80
2019-03-15T18:30:40.047Z,64.80
2019-03-15T18:33:10.150Z,65.00
2019-03-15T18:35:44.398Z,65.10
2019-03-15T18:38:17.898Z,64.90
2019-03-15T18:40:49.040Z,65.30
2019-03-15T18:43:17.524Z,64.60
2019-03-15T18:45:51.087Z,64.80
2019-03-15T18:48:19.548Z,65.30
2019-03-15T18:50:48.038Z,65.20
2019-03-15T18:53:17.631Z,65.20
2019-03-15T18:55:46.527Z,65.20
2019-03-15T18:58:15.011Z,65.30
2019-03-15T19:00:43.568Z,65.40
2019-03-15T19:03:13.395Z,65.50
2019-03-15T19:05:46.858Z,65.60
2019-03-15T19:08:14.849Z,65.50
2019-03-15T19:10:44.935Z,66.20
2019-03-15T19:13:13.451Z,65.60
2019-03-15T19:15:43.863Z,65.70
2019-03-15T19:18:16.812Z,66.00
2019-03-15T19:20:45.528Z,66.00
2019-03-15T19:23:15.884Z,66.20
2019-03-15T19:25:44.540Z,66.40
2019-03-15T19:28:13.208Z,66.50
2019-03-15T19:30:41.685Z,66.60
2019-03-15T19:33:10.209Z,66.50
2019-03-15T19:35:43.212Z,66.40
2019-03-15T19:38:09.074Z,67.00
2019-03-15T19:40:41.949Z,66.00
2019-03-15T19:43:11.285Z,65.70
2019-03-15T19:45:39.753Z,65.60
2019-03-15T19:48:12.963Z,65.20
2019-03-15T19:50:41.650Z,64.90
2019-03-15T19:53:10.325Z,64.70
2019-03-15T19:55:38.881Z,64.60
2019-03-15T19:58:07.402Z,64.80
2019-03-15T20:00:35.942Z,64.60
2019-03-15T20:03:06.083Z,64.80
2019-03-15T20:05:34.619Z,64.80
2019-03-15T20:08:06.133Z,64.70
2019-03-15T20:10:34.751Z,64.70
2019-03-15T20:13:03.312Z,64.60
2019-03-15T20:15:31.852Z,64.70
2019-03-15T20:18:00.532Z,64.80
2019-03-15T20:20:30.526Z,64.80
2019-03-15T20:23:02.467Z,65.00
2019-03-15T20:25:32.952Z,65.00
2019-03-15T20:28:04.084Z,65.10
2019-03-15T20:30:33.022Z,65.10
2019-03-15T20:33:02.972Z,65.30
2019-03-15T20:35:31.750Z,65.60
2019-03-15T20:38:00.287Z,66.00
2019-03-15T20:40:29.967Z,66.40
2019-03-15T20:43:00.253Z,66.80
2019-03-15T20:45:30.176Z,67.30
2019-03-15T20:47:58.718Z,67.60
2019-03-15T20:50:27.215Z,67.90
2019-03-15T20:53:07.585Z,68.20
2019-03-15T20:55:31.088Z,68.40
2019-03-15T20:58:02.061Z,68.50
2019-03-15T21:00:38.619Z,68.90
2019-03-15T21:03:08.090Z,69.30
2019-03-15T21:05:36.719Z,69.30
2019-03-15T21:08:07.265Z,69.50
2019-03-15T21:10:35.784Z,69.50
2019-03-15T21:13:05.788Z,69.50
2019-03-15T21:15:38.171Z,69.50
2019-03-15T21:18:06.731Z,69.50
2019-03-15T21:20:38.782Z,69.60
2019-03-15T21:23:07.303Z,69.70
2019-03-15T21:25:38.567Z,69.80
2019-03-15T21:28:07.696Z,70.00
2019-03-15T21:30:47.947Z,70.00
2019-03-15T21:33:09.867Z,70.10
2019-03-15T21:35:40.300Z,70.30
2019-03-15T21:38:08.834Z,70.60
2019-03-15T21:40:37.431Z,71.10
2019-03-15T21:43:05.947Z,71.60
2019-03-15T21:45:34.474Z,71.50
2019-03-15T21:48:03.058Z,71.50
2019-03-15T21:50:31.601Z,71.70
2019-03-15T21:53:00.043Z,71.80
2019-03-15T21:55:28.624Z,71.90
2019-03-15T21:57:58.381Z,72.30
2019-03-15T22:00:27.101Z,72.10
2019-03-15T22:02:56.819Z,72.10
2019-03-15T22:05:25.591Z,72.10
2019-03-15T22:07:57.190Z,72.10
2019-03-15T22:10:25.667Z,72.20
2019-03-15T22:12:54.143Z,72.20
2019-03-15T22:15:27.694Z,72.30
2019-03-15T22:17:55.397Z,72.20
2019-03-15T22:20:25.622Z,72.10
2019-03-15T22:22:57.457Z,71.80
2019-03-15T22:25:25.972Z,71.70
2019-03-15T22:27:54.423Z,71.70
2019-03-15T22:30:23.238Z,71.50
2019-03-15T22:32:53.269Z,71.40
2019-03-15T22:35:21.736Z,71.40
2019-03-15T22:37:50.242Z,71.40
2019-03-15T22:40:18.779Z,71.30
2019-03-15T22:42:48.203Z,71.30
2019-03-15T22:45:19.724Z,71.40
2019-03-15T22:47:51.736Z,71.30
2019-03-15T22:50:20.371Z,71.20
2019-03-15T22:52:52.083Z,71.00
2019-03-15T22:55:24.047Z,71.00
2019-03-15T22:57:59.881Z,70.60
2019-03-15T23:00:27.368Z,70.30
2019-03-15T23:02:58.619Z,70.00
2019-03-15T23:05:28.410Z,70.10
2019-03-15T23:07:56.861Z,69.90
2019-03-15T23:10:25.390Z,69.70
2019-03-15T23:12:54.880Z,69.70
2019-03-15T23:15:23.462Z,69.40
2019-03-15T23:17:52.091Z,69.00
2019-03-15T23:20:20.543Z,68.70
2019-03-15T23:22:48.991Z,68.50
2019-03-15T23:25:17.562Z,68.20
2019-03-15T23:27:46.013Z,68.00
2019-03-15T23:30:16.205Z,67.60
2019-03-15T23:32:44.743Z,67.50
2019-03-15T23:35:13.343Z,67.20
2019-03-15T23:37:42.832Z,67.20
2019-03-15T23:40:12.849Z,67.20
2019-03-15T23:42:41.302Z,66.90
2019-03-15T23:45:10.942Z,66.60
2019-03-15T23:47:39.499Z,66.50
2019-03-15T23:50:12.766Z,66.30
2019-03-15T23:52:41.309Z,66.20
2019-03-15T23:55:10.125Z,66.10
2019-03-15T23:57:38.659Z,65.90
